Time;durP1;ratioP1;P1;durP2;ratioP2;P2;SDS_P1;SDS_P2;PMS_P1;PMS_P2;Temp;Humidity;BMP_temperature;BMP_pressure;BME280_temperature;BME280_humidity;BME280_pressure;Samples;Min_cycle;Max_cycle;Signal;HPM_P1;HPM_P2
2022/10/04 00:01:43;;;;;;;;;;;26.50;86.70;;;;;;5038548;28;19912;-80
2022/10/04 00:04:15;;;;;;;;;;;26.70;86.50;;;;;;5063611;28;19965;-80
2022/10/04 00:06:50;;;;;;;;;;;26.60;87.30;;;;;;5053070;28;19920;-78
2022/10/04 00:09:22;;;;;;;;;;;26.60;85.10;;;;;;5062763;28;19935;-79
2022/10/04 00:11:49;;;;;;;;;;;26.80;85.90;;;;;;5059130;28;19912;-80
2022/10/04 00:14:19;;;;;;;;;;;27.10;84.00;;;;;;5065750;28;19908;-81
2022/10/04 00:16:46;;;;;;;;;;;26.80;86.70;;;;;;5060873;28;19938;-79
2022/10/04 00:19:19;;;;;;;;;;;26.80;87.10;;;;;;5066801;28;19966;-77
2022/10/04 00:21:52;;;;;;;;;;;26.70;87.20;;;;;;5069424;28;20481;-82
2022/10/04 00:24:24;;;;;;;;;;;27.00;85.80;;;;;;5054668;28;19927;-78
2022/10/04 00:26:51;;;;;;;;;;;26.80;84.50;;;;;;5060956;28;19908;-78
2022/10/04 00:29:37;;;;;;;;;;;26.70;85.50;;;;;;5065642;28;19977;-79
2022/10/04 00:32:10;;;;;;;;;;;26.80;84.60;;;;;;5063326;28;19966;-79
2022/10/04 00:34:50;;;;;;;;;;;26.70;86.00;;;;;;5061632;28;19920;-79
2022/10/04 00:37:18;;;;;;;;;;;26.70;85.30;;;;;;5058939;28;20004;-83
2022/10/04 00:40:07;;;;;;;;;;;26.60;85.50;;;;;;5059761;28;19939;-77
2022/10/04 00:42:57;;;;;;;;;;;26.50;84.70;;;;;;5050336;28;20088;-79
2022/10/04 00:45:38;;;;;;;;;;;26.20;86.70;;;;;;5062145;28;20568;-79
2022/10/04 00:48:24;;;;;;;;;;;26.60;86.30;;;;;;5057589;28;20041;-81
2022/10/04 00:50:55;;;;;;;;;;;26.40;84.10;;;;;;5059800;28;19908;-81
2022/10/04 00:53:40;;;;;;;;;;;26.30;85.30;;;;;;5055340;28;21458;-86
2022/10/04 00:56:11;;;;;;;;;;;26.50;87.20;;;;;;5052036;28;19939;-77
2022/10/04 00:58:45;;;;;;;;;;;26.70;83.20;;;;;;5055849;28;19932;-76
2022/10/04 01:01:12;;;;;;;;;;;26.60;85.10;;;;;;5053853;28;19997;-76
2022/10/04 01:03:41;;;;;;;;;;;26.80;85.10;;;;;;5055237;28;19978;-81
2022/10/04 01:06:10;;;;;;;;;;;26.80;85.90;;;;;;5056344;28;19924;-76
2022/10/04 01:08:40;;;;;;;;;;;26.90;84.50;;;;;;5055507;28;19908;-77
2022/10/04 01:11:12;;;;;;;;;;;27.00;86.20;;;;;;5058448;28;19917;-76
2022/10/04 01:13:49;;;;;;;;;;;27.00;84.90;;;;;;5052432;28;19916;-79
2022/10/04 01:16:21;;;;;;;;;;;26.70;83.50;;;;;;5057304;28;19916;-81
2022/10/04 01:18:48;;;;;;;;;;;26.40;84.50;;;;;;5055993;28;19916;-79
2022/10/04 01:21:21;;;;;;;;;;;26.50;87.10;;;;;;5052893;28;19920;-80
2022/10/04 01:23:50;;;;;;;;;;;27.10;87.80;;;;;;5052785;28;19974;-79
2022/10/04 01:26:28;;;;;;;;;;;27.30;84.30;;;;;;5057349;28;20364;-79
2022/10/04 01:28:59;;;;;;;;;;;27.60;83.40;;;;;;5059781;28;19951;-77
2022/10/04 01:31:31;;;;;;;;;;;27.90;83.90;;;;;;5070251;28;19920;-82
2022/10/04 01:33:58;;;;;;;;;;;27.80;81.50;;;;;;5069366;28;19974;-78
2022/10/04 01:36:26;;;;;;;;;;;27.80;83.20;;;;;;5070329;28;19920;-82
2022/10/04 01:38:53;;;;;;;;;;;27.70;80.50;;;;;;5063841;28;19912;-77
2022/10/04 01:41:24;;;;;;;;;;;27.70;82.00;;;;;;5057241;28;20314;-81
2022/10/04 01:43:52;;;;;;;;;;;28.10;83.50;;;;;;5056104;28;19981;-80
2022/10/04 01:46:22;;;;;;;;;;;28.50;81.50;;;;;;5040145;28;19909;-78
2022/10/04 01:48:48;;;;;;;;;;;28.60;79.80;;;;;;5053339;28;19908;-78
2022/10/04 01:51:15;;;;;;;;;;;29.10;79.50;;;;;;5055687;28;20286;-77
2022/10/04 01:53:54;;;;;;;;;;;29.50;81.50;;;;;;5054588;28;19918;-78
2022/10/04 01:56:29;;;;;;;;;;;29.50;78.50;;;;;;5051509;28;20014;-77
2022/10/04 01:59:03;;;;;;;;;;;29.60;75.10;;;;;;5055606;28;19909;-76
2022/10/04 02:01:49;;;;;;;;;;;29.60;78.50;;;;;;5043945;28;20657;-76
2022/10/04 02:04:20;;;;;;;;;;;30.00;80.10;;;;;;5051675;28;19924;-76
2022/10/04 02:06:48;;;;;;;;;;;30.10;78.70;;;;;;5055428;28;20313;-78
2022/10/04 02:09:18;;;;;;;;;;;30.00;77.40;;;;;;5071342;28;19908;-78
2022/10/04 02:11:51;;;;;;;;;;;29.80;76.20;;;;;;5063946;28;20310;-81
2022/10/04 02:14:19;;;;;;;;;;;29.40;76.40;;;;;;5041195;28;20046;-80
2022/10/04 02:16:51;;;;;;;;;;;28.90;77.80;;;;;;5055893;28;19916;-78
2022/10/04 02:19:18;;;;;;;;;;;28.70;78.40;;;;;;5051737;28;20444;-79
2022/10/04 02:21:46;;;;;;;;;;;28.40;76.20;;;;;;5054076;28;20054;-76
2022/10/04 02:24:13;;;;;;;;;;;28.20;75.90;;;;;;5053643;28;20066;-78
2022/10/04 02:26:39;;;;;;;;;;;28.10;76.20;;;;;;5054704;28;19916;-80
2022/10/04 02:29:08;;;;;;;;;;;28.00;75.30;;;;;;5051150;28;19913;-78
2022/10/04 02:34:21;;;;;;;;;;;27.80;75.30;;;;;;5054325;28;19955;-79
2022/10/04 02:36:50;;;;;;;;;;;27.70;75.70;;;;;;5051507;28;20742;-79
2022/10/04 02:39:23;;;;;;;;;;;27.80;76.80;;;;;;5053188;28;20398;-79
2022/10/04 02:42:12;;;;;;;;;;;27.90;77.50;;;;;;5052271;28;19934;-81
2022/10/04 02:44:45;;;;;;;;;;;28.20;77.70;;;;;;5045308;28;19913;-82
2022/10/04 02:47:23;;;;;;;;;;;28.30;76.50;;;;;;5056187;28;19955;-83
2022/10/04 02:49:52;;;;;;;;;;;28.40;75.60;;;;;;5054414;28;19923;-81
2022/10/04 02:52:25;;;;;;;;;;;28.30;76.50;;;;;;5061962;28;20419;-79
2022/10/04 02:54:52;;;;;;;;;;;28.50;75.10;;;;;;5054172;28;19970;-82
2022/10/04 02:57:20;;;;;;;;;;;28.50;75.20;;;;;;5051696;28;19909;-79
2022/10/04 02:59:47;;;;;;;;;;;28.40;74.90;;;;;;5066605;28;19915;-80
2022/10/04 03:02:27;;;;;;;;;;;28.50;74.30;;;;;;5056154;28;19916;-80
2022/10/04 03:04:55;;;;;;;;;;;28.80;76.20;;;;;;5054421;28;19920;-76
2022/10/04 03:07:22;;;;;;;;;;;28.50;74.20;;;;;;5054212;28;19908;-79
2022/10/04 03:09:50;;;;;;;;;;;28.40;74.90;;;;;;5049962;28;20390;-78
2022/10/04 03:12:16;;;;;;;;;;;28.10;74.40;;;;;;5062295;28;19912;-81
2022/10/04 03:14:44;;;;;;;;;;;27.90;75.00;;;;;;5055413;28;19948;-80
2022/10/04 03:17:11;;;;;;;;;;;27.70;77.10;;;;;;5053208;28;19912;-78
2022/10/04 03:19:38;;;;;;;;;;;27.50;75.60;;;;;;5053952;28;19913;-77
2022/10/04 03:22:11;;;;;;;;;;;27.30;74.70;;;;;;5054575;28;20382;-79
2022/10/04 03:24:40;;;;;;;;;;;27.20;74.20;;;;;;5052621;28;19970;-82
2022/10/04 03:27:08;;;;;;;;;;;27.10;73.80;;;;;;5058593;28;20318;-79
2022/10/04 03:29:39;;;;;;;;;;;27.30;73.70;;;;;;5055228;28;19912;-77
2022/10/04 03:32:06;;;;;;;;;;;27.60;73.10;;;;;;5055264;28;20359;-79
2022/10/04 03:34:36;;;;;;;;;;;28.10;72.30;;;;;;5055835;28;19919;-81
2022/10/04 03:37:02;;;;;;;;;;;28.60;72.30;;;;;;5055898;28;20745;-77
2022/10/04 03:39:34;;;;;;;;;;;29.20;71.60;;;;;;5054434;28;19909;-79
2022/10/04 03:42:03;;;;;;;;;;;29.50;72.70;;;;;;5056473;28;19920;-80
2022/10/04 03:44:31;;;;;;;;;;;29.50;70.70;;;;;;5053183;28;19912;-81
2022/10/04 03:46:58;;;;;;;;;;;29.20;71.80;;;;;;5057582;28;19958;-81
2022/10/04 03:49:31;;;;;;;;;;;29.40;73.10;;;;;;5058307;28;20361;-78
2022/10/04 03:51:59;;;;;;;;;;;29.50;71.00;;;;;;5073083;28;19944;-79
2022/10/04 03:54:29;;;;;;;;;;;29.50;73.00;;;;;;5050833;28;20003;-81
2022/10/04 03:56:56;;;;;;;;;;;29.50;71.00;;;;;;5064532;28;20363;-79
2022/10/04 03:59:24;;;;;;;;;;;29.40;73.40;;;;;;5055394;28;19909;-79
2022/10/04 04:02:16;;;;;;;;;;;29.40;71.50;;;;;;5051627;28;20317;-77
2022/10/04 04:05:10;;;;;;;;;;;29.00;72.20;;;;;;5053525;28;19919;-77
2022/10/04 04:07:45;;;;;;;;;;;28.40;70.80;;;;;;5052620;28;19923;-79
2022/10/04 04:10:14;;;;;;;;;;;28.40;71.80;;;;;;5058285;28;19915;-77
2022/10/04 04:12:46;;;;;;;;;;;28.70;71.50;;;;;;5055521;28;19916;-78
2022/10/04 04:15:14;;;;;;;;;;;28.90;69.90;;;;;;5053526;28;19908;-78
2022/10/04 04:17:43;;;;;;;;;;;29.20;70.10;;;;;;5057358;28;19912;-77
2022/10/04 04:20:17;;;;;;;;;;;29.60;71.30;;;;;;5069768;28;20007;-78
2022/10/04 04:22:45;;;;;;;;;;;30.00;72.40;;;;;;5055971;28;19932;-78
2022/10/04 04:25:14;;;;;;;;;;;30.00;71.60;;;;;;5059516;28;20378;-79
2022/10/04 04:27:41;;;;;;;;;;;30.00;70.50;;;;;;5053583;28;19912;-79
2022/10/04 04:30:08;;;;;;;;;;;29.80;68.50;;;;;;5054557;28;19916;-78
2022/10/04 04:32:39;;;;;;;;;;;29.80;69.90;;;;;;5062455;28;19995;-78
2022/10/04 04:35:07;;;;;;;;;;;29.90;71.70;;;;;;5056537;28;19919;-79
2022/10/04 04:37:34;;;;;;;;;;;30.00;71.90;;;;;;5053145;28;20039;-79
2022/10/04 04:40:17;;;;;;;;;;;29.90;72.00;;;;;;5053768;28;20825;-78
2022/10/04 04:42:44;;;;;;;;;;;29.60;70.70;;;;;;5061128;28;20355;-77
2022/10/04 04:45:21;;;;;;;;;;;29.40;70.40;;;;;;5068638;28;19996;-79
2022/10/04 04:47:50;;;;;;;;;;;29.00;70.10;;;;;;5072428;28;19916;-77
2022/10/04 04:50:22;;;;;;;;;;;28.60;70.50;;;;;;5037940;28;19909;-80
2022/10/04 04:52:54;;;;;;;;;;;28.20;76.70;;;;;;5053887;28;19991;-79
2022/10/04 04:55:23;;;;;;;;;;;27.60;77.40;;;;;;5052603;28;19956;-79
2022/10/04 04:57:50;;;;;;;;;;;27.00;78.40;;;;;;5067094;28;19995;-77
2022/10/04 05:00:19;;;;;;;;;;;26.50;79.60;;;;;;5057694;28;19919;-77
2022/10/04 05:02:56;;;;;;;;;;;26.10;80.80;;;;;;5073388;28;19908;-78
2022/10/04 05:05:22;;;;;;;;;;;25.70;82.30;;;;;;5061688;28;19916;-77
2022/10/04 05:07:50;;;;;;;;;;;25.40;82.70;;;;;;5062675;28;19949;-78
2022/10/04 05:10:30;;;;;;;;;;;25.20;83.10;;;;;;5067113;28;19908;-79
2022/10/04 05:12:58;;;;;;;;;;;25.10;83.40;;;;;;5070262;28;19909;-77
2022/10/04 05:15:26;;;;;;;;;;;25.00;84.70;;;;;;5052362;28;20356;-78
2022/10/04 05:17:52;;;;;;;;;;;24.80;85.80;;;;;;5066311;28;19995;-77
2022/10/04 05:20:20;;;;;;;;;;;24.60;86.90;;;;;;5068253;28;19954;-78
2022/10/04 05:22:48;;;;;;;;;;;24.30;87.10;;;;;;5067009;28;19925;-78
2022/10/04 05:25:21;;;;;;;;;;;24.00;87.90;;;;;;5075212;28;19927;-77
2022/10/04 05:27:48;;;;;;;;;;;23.80;88.80;;;;;;5071398;28;19912;-76
2022/10/04 05:30:24;;;;;;;;;;;23.60;89.70;;;;;;5064753;28;19916;-77
2022/10/04 05:33:01;;;;;;;;;;;23.40;89.80;;;;;;5068022;28;20251;-78
2022/10/04 05:35:28;;;;;;;;;;;23.20;90.20;;;;;;5061983;28;20428;-75
2022/10/04 05:38:01;;;;;;;;;;;23.10;91.00;;;;;;5057853;28;19918;-77
2022/10/04 05:40:28;;;;;;;;;;;23.00;91.80;;;;;;5063254;28;19920;-78
2022/10/04 05:42:57;;;;;;;;;;;22.90;92.10;;;;;;5065493;28;20007;-77
2022/10/04 05:45:27;;;;;;;;;;;22.90;91.90;;;;;;5058235;28;19915;-80
2022/10/04 05:47:56;;;;;;;;;;;22.80;91.90;;;;;;5062992;28;20340;-78
2022/10/04 05:50:31;;;;;;;;;;;22.80;92.20;;;;;;5068323;28;19912;-77
2022/10/04 05:53:09;;;;;;;;;;;22.60;92.30;;;;;;5075831;28;19912;-77
2022/10/04 05:55:58;;;;;;;;;;;22.50;92.30;;;;;;5068902;28;20366;-77
2022/10/04 05:58:31;;;;;;;;;;;22.40;92.70;;;;;;5059322;28;19908;-77
2022/10/04 06:01:04;;;;;;;;;;;22.30;92.70;;;;;;5053681;28;19999;-78
2022/10/04 06:03:37;;;;;;;;;;;22.30;92.50;;;;;;5053270;28;20633;-77
2022/10/04 06:06:23;;;;;;;;;;;22.20;92.40;;;;;;5055336;28;19912;-77
2022/10/04 06:09:13;;;;;;;;;;;22.20;92.20;;;;;;5058790;28;19914;-78
2022/10/04 06:11:49;;;;;;;;;;;22.10;92.20;;;;;;5070586;28;19915;-77
2022/10/04 06:14:31;;;;;;;;;;;21.90;92.20;;;;;;5063111;28;19918;-78
2022/10/04 06:17:08;;;;;;;;;;;21.70;92.70;;;;;;5057229;28;19912;-76
2022/10/04 06:19:37;;;;;;;;;;;21.60;92.80;;;;;;5063822;28;19912;-76
2022/10/04 06:22:05;;;;;;;;;;;21.50;92.60;;;;;;5061447;28;19912;-76
2022/10/04 06:24:36;;;;;;;;;;;21.30;92.80;;;;;;5064655;28;20039;-77
2022/10/04 06:27:21;;;;;;;;;;;21.10;93.10;;;;;;5078574;28;19933;-75
2022/10/04 06:29:55;;;;;;;;;;;21.00;93.10;;;;;;5061053;28;20437;-77
2022/10/04 06:32:23;;;;;;;;;;;20.90;93.40;;;;;;5071999;28;20363;-77
2022/10/04 06:34:58;;;;;;;;;;;20.90;93.60;;;;;;5066888;28;20370;-79
2022/10/04 06:37:45;;;;;;;;;;;20.90;93.30;;;;;;5068055;28;19934;-78
2022/10/04 06:40:12;;;;;;;;;;;20.70;93.10;;;;;;5066333;28;20419;-77
2022/10/04 06:42:56;;;;;;;;;;;20.60;92.80;;;;;;5067344;28;20062;-78
2022/10/04 06:45:41;;;;;;;;;;;20.60;93.10;;;;;;5058415;28;20430;-76
2022/10/04 06:48:24;;;;;;;;;;;20.50;93.50;;;;;;5060300;28;19948;-76
2022/10/04 06:51:03;;;;;;;;;;;20.40;93.50;;;;;;5061937;28;19912;-77
2022/10/04 06:53:56;;;;;;;;;;;20.30;93.60;;;;;;5072815;28;19908;-76
2022/10/04 06:56:31;;;;;;;;;;;20.20;93.60;;;;;;5069097;28;19908;-78
2022/10/04 06:59:17;;;;;;;;;;;20.30;93.90;;;;;;5056842;28;19916;-76
2022/10/04 07:01:49;;;;;;;;;;;20.20;94.00;;;;;;5065423;28;20697;-74
2022/10/04 07:04:35;;;;;;;;;;;20.20;94.10;;;;;;5063084;28;19921;-78
2022/10/04 07:07:23;;;;;;;;;;;20.10;94.30;;;;;;5060711;28;19919;-76
2022/10/04 07:09:51;;;;;;;;;;;20.00;94.50;;;;;;5056144;28;19965;-78
2022/10/04 07:12:19;;;;;;;;;;;19.90;94.80;;;;;;5059439;28;19995;-76
2022/10/04 07:14:51;;;;;;;;;;;19.90;94.90;;;;;;5065094;28;20512;-78
2022/10/04 07:17:26;;;;;;;;;;;19.80;95.10;;;;;;5067856;28;19913;-77
2022/10/04 07:19:54;;;;;;;;;;;19.70;95.30;;;;;;5055652;28;19909;-78
2022/10/04 07:22:20;;;;;;;;;;;19.70;95.50;;;;;;5066155;28;20290;-77
2022/10/04 07:24:55;;;;;;;;;;;19.70;95.60;;;;;;5062922;28;19955;-78
2022/10/04 07:27:31;;;;;;;;;;;19.60;95.80;;;;;;5062372;28;20274;-79
2022/10/04 07:29:59;;;;;;;;;;;19.60;95.90;;;;;;5069994;28;19916;-77
2022/10/04 07:32:28;;;;;;;;;;;19.60;96.10;;;;;;5074927;28;19916;-76
2022/10/04 07:35:13;;;;;;;;;;;19.60;96.30;;;;;;5077667;28;20266;-77
2022/10/04 07:37:52;;;;;;;;;;;19.50;96.50;;;;;;5056627;28;20007;-76
2022/10/04 07:40:31;;;;;;;;;;;19.50;96.70;;;;;;5068254;28;19917;-77
2022/10/04 07:43:04;;;;;;;;;;;19.40;96.90;;;;;;5069511;28;19921;-77
2022/10/04 07:45:33;;;;;;;;;;;19.30;97.10;;;;;;5062426;28;20598;-79
2022/10/04 07:48:09;;;;;;;;;;;19.40;97.30;;;;;;5065841;28;19943;-78
2022/10/04 07:50:40;;;;;;;;;;;19.40;97.20;;;;;;5059726;28;19915;-83
2022/10/04 07:53:18;;;;;;;;;;;19.40;97.30;;;;;;5060225;28;19915;-81
2022/10/04 07:55:49;;;;;;;;;;;19.30;97.10;;;;;;5053931;28;19922;-79
2022/10/04 07:58:22;;;;;;;;;;;19.30;97.30;;;;;;5068462;28;19912;-77
2022/10/04 08:00:52;;;;;;;;;;;19.30;97.60;;;;;;5063254;28;19986;-74
2022/10/04 08:03:19;;;;;;;;;;;19.20;97.40;;;;;;5060090;28;20260;-72
2022/10/04 08:05:50;;;;;;;;;;;19.20;97.40;;;;;;5057898;28;19908;-74
2022/10/04 08:08:31;;;;;;;;;;;19.20;97.80;;;;;;5067352;28;19908;-81
2022/10/04 08:11:11;;;;;;;;;;;19.10;98.00;;;;;;5067895;28;19916;-79
2022/10/04 08:14:03;;;;;;;;;;;19.10;98.00;;;;;;5056827;28;19951;-77
2022/10/04 08:16:37;;;;;;;;;;;18.90;98.40;;;;;;5062988;28;19915;-72
2022/10/04 08:19:19;;;;;;;;;;;18.90;98.70;;;;;;5066621;28;19912;-76
2022/10/04 08:21:58;;;;;;;;;;;18.80;99.00;;;;;;5067004;28;19916;-77
2022/10/04 08:24:29;;;;;;;;;;;18.90;99.10;;;;;;5068741;28;19970;-79
2022/10/04 08:27:04;;;;;;;;;;;19.00;99.00;;;;;;5074006;28;19953;-81
2022/10/04 08:29:48;;;;;;;;;;;19.10;98.90;;;;;;5063001;28;19908;-73
2022/10/04 08:32:14;;;;;;;;;;;19.00;99.00;;;;;;5084828;28;19916;-80
2022/10/04 08:34:44;;;;;;;;;;;18.90;99.20;;;;;;5073524;28;19912;-78
2022/10/04 08:37:23;;;;;;;;;;;19.00;99.30;;;;;;5068420;28;19923;-71
2022/10/04 08:40:08;;;;;;;;;;;19.00;99.20;;;;;;5062935;28;19946;-74
2022/10/04 08:42:53;;;;;;;;;;;19.00;99.30;;;;;;5063417;28;20268;-75
2022/10/04 08:45:38;;;;;;;;;;;19.00;99.20;;;;;;5057152;28;19916;-78
2022/10/04 08:48:23;;;;;;;;;;;19.00;99.30;;;;;;5059625;28;19943;-76
2022/10/04 08:51:05;;;;;;;;;;;18.90;99.60;;;;;;5065759;28;19955;-79
2022/10/04 08:53:44;;;;;;;;;;;18.90;99.60;;;;;;5075385;28;19956;-82
2022/10/04 08:56:26;;;;;;;;;;;18.90;99.80;;;;;;5061901;28;19912;-77
2022/10/04 08:59:18;;;;;;;;;;;18.90;99.80;;;;;;5060843;28;19915;-77
2022/10/04 09:01:51;;;;;;;;;;;18.90;99.90;;;;;;5053755;28;19908;-78
2022/10/04 09:04:21;;;;;;;;;;;18.90;99.90;;;;;;5065143;28;20347;-80
2022/10/04 09:06:48;;;;;;;;;;;18.90;99.90;;;;;;5072781;28;19912;-80
2022/10/04 09:09:18;;;;;;;;;;;19.00;99.90;;;;;;5059072;28;20299;-83
2022/10/04 09:11:50;;;;;;;;;;;18.90;99.90;;;;;;5064037;28;20007;-82
2022/10/04 09:14:17;;;;;;;;;;;18.90;99.90;;;;;;5051493;28;20333;-80
2022/10/04 09:16:48;;;;;;;;;;;18.80;99.90;;;;;;5053188;28;19916;-78
2022/10/04 09:19:20;;;;;;;;;;;18.80;99.90;;;;;;5048384;28;19916;-82
2022/10/04 09:21:47;;;;;;;;;;;18.70;99.90;;;;;;5055085;28;19912;-76
2022/10/04 09:24:17;;;;;;;;;;;18.70;99.90;;;;;;5057664;28;20785;-79
2022/10/04 09:26:45;;;;;;;;;;;18.70;99.90;;;;;;5053202;28;20406;-82
2022/10/04 09:29:29;;;;;;;;;;;18.70;99.90;;;;;;5050750;28;19945;-73
2022/10/04 09:32:11;;;;;;;;;;;18.70;99.90;;;;;;5057624;28;20008;-78
2022/10/04 09:34:38;;;;;;;;;;;18.70;99.90;;;;;;5055694;28;19928;-78
2022/10/04 09:37:16;;;;;;;;;;;18.70;99.90;;;;;;5052775;28;19915;-84
2022/10/04 09:39:46;;;;;;;;;;;18.70;99.90;;;;;;5056010;28;19912;-85
2022/10/04 09:42:31;;;;;;;;;;;18.70;99.90;;;;;;5074548;28;19908;-82
2022/10/04 09:45:04;;;;;;;;;;;18.70;99.90;;;;;;5067220;28;19923;-85
2022/10/04 09:47:44;;;;;;;;;;;18.70;99.90;;;;;;5062865;28;19920;-85
2022/10/04 09:50:16;;;;;;;;;;;18.60;99.90;;;;;;5056442;28;19916;-83
2022/10/04 09:52:52;;;;;;;;;;;18.60;99.90;;;;;;5041932;28;19908;-75
2022/10/04 09:55:25;;;;;;;;;;;18.60;99.90;;;;;;5049252;28;19912;-78
2022/10/04 09:57:58;;;;;;;;;;;18.60;99.90;;;;;;5055599;28;19909;-82
2022/10/04 10:00:46;;;;;;;;;;;18.60;99.90;;;;;;5055145;28;19908;-82
2022/10/04 10:03:31;;;;;;;;;;;18.60;99.90;;;;;;5056469;28;19920;-81
2022/10/04 10:06:15;;;;;;;;;;;18.60;99.90;;;;;;5056603;28;19936;-83
2022/10/04 10:08:56;;;;;;;;;;;18.60;99.90;;;;;;5052055;28;20498;-82
2022/10/04 10:14:42;;;;;;;;;;;18.50;99.90;;;;;;5052324;28;19915;-76
2022/10/04 10:17:26;;;;;;;;;;;18.50;99.90;;;;;;5063305;28;19916;-83
2022/10/04 10:20:19;;;;;;;;;;;18.50;99.90;;;;;;5070120;28;20354;-79
2022/10/04 10:23:03;;;;;;;;;;;18.50;99.90;;;;;;5070697;28;20018;-80
2022/10/04 10:25:48;;;;;;;;;;;18.50;99.90;;;;;;5062292;28;19912;-79
2022/10/04 10:28:24;;;;;;;;;;;18.50;99.90;;;;;;5057358;28;19919;-79
2022/10/04 10:30:57;;;;;;;;;;;18.50;99.90;;;;;;5081502;28;19912;-81
2022/10/04 10:33:39;;;;;;;;;;;18.40;99.90;;;;;;5054352;28;19951;-78
2022/10/04 10:36:16;;;;;;;;;;;18.40;99.90;;;;;;5058708;28;19916;-78
2022/10/04 10:39:01;;;;;;;;;;;18.40;99.90;;;;;;5058335;28;19915;-78
2022/10/04 10:41:34;;;;;;;;;;;18.30;99.90;;;;;;5070353;28;19916;-75
2022/10/04 10:44:13;;;;;;;;;;;18.30;99.90;;;;;;5081487;28;19981;-77
2022/10/04 10:46:50;;;;;;;;;;;18.30;99.90;;;;;;5062411;28;19916;-77
2022/10/04 10:49:36;;;;;;;;;;;18.30;99.90;;;;;;5061291;28;19960;-77
2022/10/04 10:52:13;;;;;;;;;;;18.30;99.90;;;;;;5055580;28;19916;-77
2022/10/04 10:54:58;;;;;;;;;;;18.30;99.90;;;;;;5057413;28;19916;-77
2022/10/04 10:57:25;;;;;;;;;;;18.20;99.90;;;;;;5058928;28;19908;-78
2022/10/04 11:00:05;;;;;;;;;;;18.20;99.90;;;;;;5056084;28;19908;-77
2022/10/04 11:02:35;;;;;;;;;;;18.20;99.90;;;;;;5060860;28;19916;-77
2022/10/04 11:05:24;;;;;;;;;;;18.20;99.90;;;;;;5063039;28;19919;-77
2022/10/04 11:08:10;;;;;;;;;;;18.20;99.90;;;;;;5072939;28;20330;-75
2022/10/04 11:10:46;;;;;;;;;;;18.20;99.90;;;;;;5056400;28;19962;-77
2022/10/04 11:13:24;;;;;;;;;;;18.10;99.90;;;;;;5058777;28;19946;-77
2022/10/04 11:16:04;;;;;;;;;;;18.10;99.90;;;;;;5056429;28;19921;-78
2022/10/04 11:18:45;;;;;;;;;;;18.10;99.90;;;;;;5061962;28;19908;-78
2022/10/04 11:21:31;;;;;;;;;;;18.10;99.90;;;;;;5056211;28;19912;-76
2022/10/04 11:24:04;;;;;;;;;;;18.00;99.90;;;;;;5057856;28;19921;-76
2022/10/04 11:26:49;;;;;;;;;;;18.00;99.90;;;;;;5062717;28;20275;-78
2022/10/04 11:29:19;;;;;;;;;;;17.90;99.90;;;;;;5066912;28;19913;-77
2022/10/04 11:31:52;;;;;;;;;;;17.90;99.90;;;;;;5081953;28;19908;-78
2022/10/04 11:34:38;;;;;;;;;;;17.90;99.90;;;;;;5057487;28;19936;-77
2022/10/04 11:37:15;;;;;;;;;;;17.90;99.90;;;;;;5053942;28;20386;-77
2022/10/04 11:39:59;;;;;;;;;;;17.90;99.90;;;;;;5056007;28;20880;-76
2022/10/04 11:42:32;;;;;;;;;;;17.90;99.90;;;;;;5078377;28;20248;-75
2022/10/04 11:45:32;;;;;;;;;;;17.90;99.90;;;;;;5071257;28;19923;-77
2022/10/04 11:47:59;;;;;;;;;;;17.90;99.90;;;;;;4993666;28;20371;-77
2022/10/04 11:50:41;;;;;;;;;;;17.90;99.90;;;;;;5054989;28;19912;-78
2022/10/04 11:53:27;;;;;;;;;;;17.90;99.90;;;;;;5071230;28;19944;-77
2022/10/04 11:55:56;;;;;;;;;;;17.90;99.90;;;;;;5052558;28;19920;-79
2022/10/04 11:58:32;;;;;;;;;;;17.80;99.90;;;;;;5070100;28;19916;-79
2022/10/04 12:00:59;;;;;;;;;;;17.90;99.90;;;;;;5082067;28;20279;-79
2022/10/04 12:03:44;;;;;;;;;;;17.90;99.90;;;;;;5062656;28;19919;-78
2022/10/04 12:06:32;;;;;;;;;;;17.90;99.90;;;;;;5071158;28;20009;-79
2022/10/04 12:09:05;;;;;;;;;;;17.80;99.90;;;;;;5063768;28;19912;-79
2022/10/04 12:14:45;;;;;;;;;;;17.90;99.90;;;;;;5055616;28;19947;-78
2022/10/04 12:17:18;;;;;;;;;;;17.80;99.90;;;;;;5053982;28;20367;-80
2022/10/04 12:19:57;;;;;;;;;;;17.80;99.90;;;;;;5053418;28;19979;-78
2022/10/04 12:22:35;;;;;;;;;;;17.80;99.90;;;;;;5065087;28;20003;-76
2022/10/04 12:25:20;;;;;;;;;;;17.80;99.90;;;;;;5070758;28;19935;-78
2022/10/04 12:28:10;;;;;;;;;;;17.80;99.90;;;;;;5057904;28;19909;-76
2022/10/04 12:30:42;;;;;;;;;;;17.80;99.90;;;;;;5074310;28;19912;-78
2022/10/04 12:33:11;;;;;;;;;;;17.70;99.90;;;;;;5069537;28;19923;-79
2022/10/04 12:35:46;;;;;;;;;;;17.70;99.90;;;;;;5057129;28;20031;-75
2022/10/04 12:38:24;;;;;;;;;;;17.80;99.90;;;;;;5055737;28;19918;-79
2022/10/04 12:41:06;;;;;;;;;;;17.80;99.90;;;;;;5055736;28;19912;-76
2022/10/04 12:43:33;;;;;;;;;;;17.70;99.90;;;;;;5053614;28;19920;-76
2022/10/04 12:46:00;;;;;;;;;;;17.70;99.90;;;;;;5055708;28;19915;-76
2022/10/04 12:48:31;;;;;;;;;;;17.70;99.90;;;;;;5069039;28;19917;-76
2022/10/04 12:51:03;;;;;;;;;;;17.70;99.90;;;;;;5054193;28;19916;-78
2022/10/04 12:53:33;;;;;;;;;;;17.70;99.90;;;;;;5060776;28;20323;-78
2022/10/04 12:56:28;;;;;;;;;;;17.70;99.90;;;;;;5060826;28;19944;-77
2022/10/04 12:58:55;;;;;;;;;;;17.70;99.90;;;;;;5054738;28;19920;-78
2022/10/04 13:01:40;;;;;;;;;;;17.70;99.90;;;;;;5051007;28;19999;-78
2022/10/04 13:04:10;;;;;;;;;;;17.70;99.90;;;;;;5055383;28;22257;-81
2022/10/04 13:06:54;;;;;;;;;;;17.70;99.90;;;;;;5045126;28;19917;-77
2022/10/04 13:09:36;;;;;;;;;;;17.60;99.90;;;;;;5055356;28;19908;-78
2022/10/04 13:12:10;;;;;;;;;;;17.60;99.90;;;;;;5062746;28;19974;-77
2022/10/04 13:14:40;;;;;;;;;;;17.60;99.90;;;;;;5070317;28;19931;-83
2022/10/04 13:17:23;;;;;;;;;;;17.60;99.90;;;;;;5062825;28;20399;-79
2022/10/04 13:20:08;;;;;;;;;;;17.50;99.90;;;;;;5071208;28;20341;-81
2022/10/04 13:22:44;;;;;;;;;;;17.50;99.90;;;;;;5071375;28;19937;-78
2022/10/04 13:25:19;;;;;;;;;;;17.50;99.90;;;;;;5074507;28;19924;-79
2022/10/04 13:28:12;;;;;;;;;;;17.50;99.90;;;;;;5059265;28;19913;-77
2022/10/04 13:30:59;;;;;;;;;;;17.50;99.90;;;;;;5035449;28;19908;-79
2022/10/04 13:33:44;;;;;;;;;;;17.50;99.90;;;;;;5058559;28;20047;-77
2022/10/04 13:36:29;;;;;;;;;;;17.50;99.90;;;;;;5058076;28;19954;-78
2022/10/04 13:39:14;;;;;;;;;;;17.50;99.90;;;;;;5071339;28;19942;-75
2022/10/04 13:41:46;;;;;;;;;;;17.40;99.90;;;;;;5066219;28;20359;-80
2022/10/04 13:44:22;;;;;;;;;;;17.40;99.90;;;;;;5062074;28;19986;-77
2022/10/04 13:46:58;;;;;;;;;;;17.40;99.90;;;;;;5073647;28;20003;-76
2022/10/04 13:49:36;;;;;;;;;;;17.40;99.90;;;;;;5070008;28;19908;-77
2022/10/04 13:58:01;;;;;;;;;;;17.50;99.90;;;;;;5060692;28;20278;-80
2022/10/04 14:00:28;;;;;;;;;;;17.50;99.90;;;;;;5061503;28;20424;-79
2022/10/04 14:03:18;;;;;;;;;;;17.50;99.90;;;;;;5052380;28;20007;-75
2022/10/04 14:05:53;;;;;;;;;;;17.50;99.90;;;;;;5051147;28;19944;-77
2022/10/04 14:08:29;;;;;;;;;;;17.40;99.90;;;;;;5051170;28;19955;-80
2022/10/04 14:11:28;;;;;;;;;;;17.50;99.90;;;;;;5087995;28;20002;-78
2022/10/04 14:14:13;;;;;;;;;;;17.40;99.90;;;;;;5030444;28;19947;-79
2022/10/04 14:17:12;;;;;;;;;;;17.40;99.90;;;;;;5062404;28;19960;-78
2022/10/04 14:20:06;;;;;;;;;;;17.40;99.90;;;;;;5023798;28;19912;-78
2022/10/04 14:22:42;;;;;;;;;;;17.50;99.90;;;;;;5070522;28;19908;-76
2022/10/04 14:25:18;;;;;;;;;;;17.40;99.90;;;;;;5089798;28;20563;-79
2022/10/04 14:27:48;;;;;;;;;;;17.50;99.90;;;;;;5082428;28;19912;-79
2022/10/04 14:30:22;;;;;;;;;;;17.50;99.90;;;;;;5072459;28;19912;-79
2022/10/04 14:32:57;;;;;;;;;;;17.50;99.90;;;;;;5075188;28;19916;-77
2022/10/04 14:35:35;;;;;;;;;;;17.50;99.90;;;;;;5077953;28;19935;-77
2022/10/04 14:38:14;;;;;;;;;;;17.40;99.90;;;;;;5065533;28;20355;-80
2022/10/04 14:40:49;;;;;;;;;;;17.40;99.90;;;;;;5065344;28;20244;-78
2022/10/04 14:43:34;;;;;;;;;;;17.40;99.90;;;;;;5064444;28;19947;-79
2022/10/04 14:46:07;;;;;;;;;;;17.30;99.90;;;;;;5062705;28;19908;-78
2022/10/04 14:48:52;;;;;;;;;;;17.30;99.90;;;;;;5072253;28;19966;-77
2022/10/04 14:51:18;;;;;;;;;;;17.30;99.90;;;;;;5077693;28;19987;-79
2022/10/04 14:54:03;;;;;;;;;;;17.20;99.90;;;;;;5061229;28;20390;-77
2022/10/04 14:56:32;;;;;;;;;;;17.20;99.90;;;;;;5071603;28;19904;-79
2022/10/04 14:59:15;;;;;;;;;;;17.20;99.90;;;;;;5078225;28;19970;-80
2022/10/04 15:02:06;;;;;;;;;;;17.10;99.90;;;;;;5072613;28;19907;-81
2022/10/04 15:04:50;;;;;;;;;;;17.10;99.90;;;;;;5047197;28;20461;-77
2022/10/04 15:07:20;;;;;;;;;;;17.10;99.90;;;;;;5083043;28;19963;-80
2022/10/04 15:09:49;;;;;;;;;;;17.10;99.90;;;;;;5051513;28;19935;-79
2022/10/04 15:12:28;;;;;;;;;;;17.10;99.90;;;;;;5079521;28;19961;-78
2022/10/04 15:14:57;;;;;;;;;;;17.10;99.90;;;;;;5078316;28;19915;-81
2022/10/04 15:17:25;;;;;;;;;;;17.00;99.90;;;;;;5063187;28;20327;-80